Time;durP1;ratioP1;P1;durP2;ratioP2;P2;SDS_P1;SDS_P2;PMS_P1;PMS_P2;Temp;Humidity;BMP_temperature;BMP_pressure;BME280_temperature;BME280_humidity;BME280_pressure;Samples;Min_cycle;Max_cycle;Signal;HPM_P1;HPM_P2
2022/05/19 00:00:03;;;;;;;;;;;;;;;;;;8409722;28;27242;-66
2022/05/19 00:04:03;;;;;;;;;;;;;;;;;;8412431;28;27352;-65
2022/05/19 00:08:04;;;;;;;;;;;;;;;;;;8411328;28;28299;-66
2022/05/19 00:12:04;;;;;;;;;;;;;;;;;;8410187;28;27750;-66
2022/05/19 00:16:05;;;;;;;;;;;;;;;;;;8411572;28;27981;-65
2022/05/19 00:20:05;;;;;;;;;;;;;;;;;;8411859;27;27352;-67
2022/05/19 00:24:06;;;;;;;;;;;;;;;;;;8414375;28;28328;-66
2022/05/19 00:28:06;;;;;;;;;;;;;;;;;;8409636;28;28665;-66
2022/05/19 00:32:06;;;;;;;;;;;;;;;;;;8411617;28;27193;-66
2022/05/19 00:36:06;;;;;;;;;;;;;;;;;;8410802;28;27661;-67
2022/05/19 00:40:06;;;;;;;;;;;;;;;;;;8412798;28;27725;-66
2022/05/19 00:44:07;;;;;;;;;;;;;;;;;;8409476;28;27466;-65
2022/05/19 00:48:07;;;;;;;;;;;;;;;;;;8412488;27;27471;-65
2022/05/19 00:52:07;;;;;;;;;;;;;;;;;;8409898;28;29470;-67
2022/05/19 00:56:07;;;;;;;;;;;;;;;;;;8415677;28;27493;-65
2022/05/19 01:00:07;;;;;;;;;;;;;;;;;;8412548;28;27248;-66
2022/05/19 01:04:07;;;;;;;;;;;;;;;;;;8409868;28;27911;-65
2022/05/19 01:08:08;;;;;;;;;;;;;;;;;;8410510;28;28372;-65
2022/05/19 01:12:09;;;;;;;;;;;;;;;;;;8404192;28;27551;-65
2022/05/19 01:16:09;;;;;;;;;;;;;;;;;;8405352;28;28174;-65
2022/05/19 01:20:09;;;;;;;;;;;;;;;;;;8407858;28;27355;-66
2022/05/19 01:24:11;;;;;;;;;;;;;;;;;;8410584;28;27303;-66
2022/05/19 01:28:11;;;;;;;;;;;;;;;;;;8409711;28;27204;-66
2022/05/19 01:32:11;;;;;;;;;;;;;;;;;;8409367;28;27238;-65
2022/05/19 01:36:11;;;;;;;;;;;;;;;;;;8408576;28;27548;-65
2022/05/19 01:40:11;;;;;;;;;;;;;;;;;;8406345;28;28075;-67
2022/05/19 01:44:11;;;;;;;;;;;;;;;;;;8405499;28;28025;-65
2022/05/19 01:48:12;;;;;;;;;;;;;;;;;;8408586;28;27498;-65
2022/05/19 01:52:12;;;;;;;;;;;;;;;;;;8408960;28;27447;-66
2022/05/19 01:56:12;;;;;;;;;;;;;;;;;;8410092;28;27174;-65
2022/05/19 02:00:12;;;;;;;;;;;;;;;;;;8408521;28;28540;-66
2022/05/19 02:04:16;;;;;;;;;;;;;;;;;;8406967;28;27562;-67
2022/05/19 02:08:17;;;;;;;;;;;;;;;;;;8408544;28;28009;-66
2022/05/19 02:12:17;;;;;;;;;;;;;;;;;;8408713;28;27811;-65
2022/05/19 02:16:17;;;;;;;;;;;;;;;;;;8409825;28;27719;-65
2022/05/19 02:20:17;;;;;;;;;;;;;;;;;;8407660;28;27936;-65
2022/05/19 02:24:18;;;;;;;;;;;;;;;;;;8416190;27;28827;-66
2022/05/19 02:28:18;;;;;;;;;;;;;;;;;;8420626;28;27652;-65
2022/05/19 02:32:18;;;;;;;;;;;;;;;;;;8417857;28;27242;-65
2022/05/19 02:36:18;;;;;;;;;;;;;;;;;;8420980;28;28535;-65
2022/05/19 02:40:18;;;;;;;;;;;;;;;;;;8421583;28;27879;-66
2022/05/19 02:44:18;;;;;;;;;;;;;;;;;;8420567;28;28824;-66
2022/05/19 02:48:18;;;;;;;;;;;;;;;;;;8417997;28;28452;-66
2022/05/19 02:52:18;;;;;;;;;;;;;;;;;;8415850;28;27172;-66
2022/05/19 02:56:18;;;;;;;;;;;;;;;;;;8411669;28;27821;-65
2022/05/19 03:00:18;;;;;;;;;;;;;;;;;;8413889;28;27346;-66
2022/05/19 03:04:19;;;;;;;;;;;;;;;;;;8415522;28;27575;-65
2022/05/19 03:08:19;;;;;;;;;;;;;;;;;;8414212;28;28026;-65
2022/05/19 03:12:19;;;;;;;;;;;;;;;;;;8410536;28;27212;-66
2022/05/19 03:16:19;;;;;;;;;;;;;;;;;;8416982;28;27150;-65
2022/05/19 03:20:19;;;;;;;;;;;;;;;;;;8422611;28;27994;-65
2022/05/19 03:24:19;;;;;;;;;;;;;;;;;;8416839;28;27718;-65
2022/05/19 03:28:19;;;;;;;;;;;;;;;;;;8420182;28;27533;-65
2022/05/19 03:32:19;;;;;;;;;;;;;;;;;;8414193;28;27377;-65
2022/05/19 03:36:19;;;;;;;;;;;;;;;;;;8412039;28;27327;-65
2022/05/19 03:40:20;;;;;;;;;;;;;;;;;;8411415;28;27919;-65
2022/05/19 03:44:20;;;;;;;;;;;;;;;;;;8410699;28;27908;-65
2022/05/19 03:48:20;;;;;;;;;;;;;;;;;;8410977;28;28012;-66
2022/05/19 03:52:20;;;;;;;;;;;;;;;;;;8410684;28;27286;-66
2022/05/19 03:56:20;;;;;;;;;;;;;;;;;;8411651;28;28233;-65
2022/05/19 04:00:20;;;;;;;;;;;;;;;;;;8408540;28;28724;-66
2022/05/19 04:04:20;;;;;;;;;;;;;;;;;;8405884;27;30050;-66
2022/05/19 04:08:20;;;;;;;;;;;;;;;;;;8410828;28;27308;-66
2022/05/19 04:12:21;;;;;;;;;;;;;;;;;;8402000;28;27466;-65
2022/05/19 04:16:21;;;;;;;;;;;;;;;;;;8409399;28;27477;-66
2022/05/19 04:20:21;;;;;;;;;;;;;;;;;;8414201;28;28232;-66
2022/05/19 04:24:21;;;;;;;;;;;;;;;;;;8406078;28;27272;-65
2022/05/19 04:28:21;;;;;;;;;;;;;;;;;;8406324;28;27444;-67
2022/05/19 04:32:23;;;;;;;;;;;;;;;;;;8406220;27;49074;-65
2022/05/19 04:36:23;;;;;;;;;;;;;;;;;;8404528;28;27543;-66
2022/05/19 04:40:23;;;;;;;;;;;;;;;;;;8410796;28;28459;-67
2022/05/19 04:44:23;;;;;;;;;;;;;;;;;;8406879;28;28454;-65
2022/05/19 04:48:23;;;;;;;;;;;;;;;;;;8407266;27;28669;-66
2022/05/19 04:52:24;;;;;;;;;;;;;;;;;;8405916;28;27418;-66
2022/05/19 04:56:24;;;;;;;;;;;;;;;;;;8407021;28;27352;-66
2022/05/19 05:00:24;;;;;;;;;;;;;;;;;;8405529;28;27235;-67
2022/05/19 05:04:26;;;;;;;;;;;;;;;;;;8409773;28;27298;-66
2022/05/19 05:08:26;;;;;;;;;;;;;;;;;;8407383;28;27242;-68
2022/05/19 05:12:26;;;;;;;;;;;;;;;;;;8407980;28;28235;-66
2022/05/19 05:16:26;;;;;;;;;;;;;;;;;;8408219;28;27316;-66
2022/05/19 05:20:26;;;;;;;;;;;;;;;;;;8410594;28;27436;-66
2022/05/19 05:24:27;;;;;;;;;;;;;;;;;;8407906;28;27484;-66
2022/05/19 05:28:27;;;;;;;;;;;;;;;;;;8411458;28;27840;-66
2022/05/19 05:32:27;;;;;;;;;;;;;;;;;;8406472;28;27319;-66
2022/05/19 05:36:27;;;;;;;;;;;;;;;;;;8406130;28;27474;-65
2022/05/19 05:40:27;;;;;;;;;;;;;;;;;;8404732;28;28280;-66
2022/05/19 05:44:27;;;;;;;;;;;;;;;;;;8408056;28;28122;-66
2022/05/19 05:48:27;;;;;;;;;;;;;;;;;;8411085;28;27274;-66
2022/05/19 05:52:27;;;;;;;;;;;;;;;;;;8406422;28;27518;-66
2022/05/19 05:56:27;;;;;;;;;;;;;;;;;;8407446;28;28426;-66
2022/05/19 06:00:28;;;;;;;;;;;;;;;;;;8401771;28;27555;-66
2022/05/19 06:04:28;;;;;;;;;;;;;;;;;;8403015;28;28002;-66
2022/05/19 06:08:28;;;;;;;;;;;;;;;;;;8411002;28;27375;-65
2022/05/19 06:12:28;;;;;;;;;;;;;;;;;;8401546;28;28499;-66
2022/05/19 06:16:28;;;;;;;;;;;;;;;;;;8410288;28;27301;-66
2022/05/19 06:20:28;;;;;;;;;;;;;;;;;;8407626;28;27172;-65
2022/05/19 06:24:29;;;;;;;;;;;;;;;;;;8407166;28;27357;-68
2022/05/19 06:28:29;;;;;;;;;;;;;;;;;;8409355;27;27836;-67
2022/05/19 06:32:29;;;;;;;;;;;;;;;;;;8403398;28;28111;-68
2022/05/19 06:36:29;;;;;;;;;;;;;;;;;;8411683;28;27952;-67
2022/05/19 06:40:29;;;;;;;;;;;;;;;;;;8404094;28;27459;-67
2022/05/19 06:44:29;;;;;;;;;;;;;;;;;;8400512;28;27539;-67
2022/05/19 06:48:29;;;;;;;;;;;;;;;;;;8403047;28;27378;-66
2022/05/19 06:52:30;;;;;;;;;;;;;;;;;;8402050;28;27683;-66
2022/05/19 06:56:30;;;;;;;;;;;;;;;;;;8403903;28;28111;-67
2022/05/19 07:00:30;;;;;;;;;;;;;;;;;;8405482;28;27930;-66
2022/05/19 07:04:31;;;;;;;;;;;;;;;;;;8405467;28;27563;-67
2022/05/19 07:08:31;;;;;;;;;;;;;;;;;;8408378;27;27176;-67
2022/05/19 07:12:33;;;;;;;;;;;;;;;;;;8411322;28;28089;-67
2022/05/19 07:16:33;;;;;;;;;;;;;;;;;;8410593;28;27388;-67
2022/05/19 07:20:48;;;;;;;;;;;;;;;;;;8414377;28;27166;-65
2022/05/19 07:24:48;;;;;;;;;;;;;;;;;;8408895;28;28059;-66
2022/05/19 07:28:49;;;;;;;;;;;;;;;;;;8408143;28;27687;-67
2022/05/19 07:32:49;;;;;;;;;;;;;;;;;;8411414;28;27787;-66
2022/05/19 07:36:49;;;;;;;;;;;;;;;;;;8405253;28;27292;-66
2022/05/19 07:40:54;;;;;;;;;;;;;;;;;;8412082;28;27421;-67
2022/05/19 07:44:55;;;;;;;;;;;;;;;;;;8410636;28;28849;-66
2022/05/19 07:48:55;;;;;;;;;;;;;;;;;;8408260;28;28859;-66
2022/05/19 07:52:55;;;;;;;;;;;;;;;;;;8409749;28;28782;-66
2022/05/19 07:56:55;;;;;;;;;;;;;;;;;;8410151;28;27447;-66
2022/05/19 08:00:55;;;;;;;;;;;;;;;;;;8407689;28;27298;-66
2022/05/19 08:04:55;;;;;;;;;;;;;;;;;;8410173;28;27491;-66
2022/05/19 08:08:58;;;;;;;;;;;;;;;;;;8407184;28;27498;-65
2022/05/19 08:17:17;;;;;;;;;;;;;;;;;;8408791;28;28999;-65
2022/05/19 08:21:17;;;;;;;;;;;;;;;;;;8408355;27;27415;-65
2022/05/19 08:25:17;;;;;;;;;;;;;;;;;;8410547;28;27469;-65
2022/05/19 08:29:19;;;;;;;;;;;;;;;;;;8406801;28;27588;-65
2022/05/19 08:33:19;;;;;;;;;;;;;;;;;;8413535;27;27172;-65
2022/05/19 08:37:19;;;;;;;;;;;;;;;;;;8407742;28;28166;-65
2022/05/19 08:41:19;;;;;;;;;;;;;;;;;;8407156;28;28244;-65
2022/05/19 08:45:19;;;;;;;;;;;;;;;;;;8406582;28;27161;-65
2022/05/19 08:49:19;;;;;;;;;;;;;;;;;;8409669;28;27168;-65
2022/05/19 08:53:19;;;;;;;;;;;;;;;;;;8407660;28;27526;-65
2022/05/19 08:57:20;;;;;;;;;;;;;;;;;;8411528;28;27611;-66
2022/05/19 09:01:20;;;;;;;;;;;;;;;;;;8405006;28;27906;-65
2022/05/19 09:05:20;;;;;;;;;;;;;;;;;;8408378;28;27301;-67
2022/05/19 09:09:20;;;;;;;;;;;;;;;;;;8407036;28;27634;-65
2022/05/19 09:13:20;;;;;;;;;;;;;;;;;;8408995;28;27307;-65
2022/05/19 09:17:20;;;;;;;;;;;;;;;;;;8408475;28;28340;-66
2022/05/19 09:21:20;;;;;;;;;;;;;;;;;;8405556;28;29893;-65
2022/05/19 09:25:21;;;;;;;;;;;;;;;;;;8410301;28;28142;-66
2022/05/19 09:29:21;;;;;;;;;;;;;;;;;;8405696;28;27658;-66
2022/05/19 09:33:21;;;;;;;;;;;;;;;;;;8404544;28;27205;-66
2022/05/19 09:37:22;;;;;;;;;;;;;;;;;;8403389;28;27863;-66
2022/05/19 09:41:22;;;;;;;;;;;;;;;;;;8409919;28;27311;-66
2022/05/19 09:45:22;;;;;;;;;;;;;;;;;;8408250;28;27738;-66
2022/05/19 09:49:22;;;;;;;;;;;;;;;;;;8408606;28;27871;-68
2022/05/19 09:53:22;;;;;;;;;;;;;;;;;;8406445;28;27396;-66
2022/05/19 09:57:22;;;;;;;;;;;;;;;;;;8406190;28;27437;-66
2022/05/19 10:01:22;;;;;;;;;;;;;;;;;;8408434;28;27342;-66
2022/05/19 10:05:23;;;;;;;;;;;;;;;;;;8403795;28;28114;-65
2022/05/19 10:09:23;;;;;;;;;;;;;;;;;;8406810;28;27641;-65
2022/05/19 10:13:23;;;;;;;;;;;;;;;;;;8410085;28;28674;-65
2022/05/19 10:17:23;;;;;;;;;;;;;;;;;;8405912;28;27401;-65
2022/05/19 10:21:24;;;;;;;;;;;;;;;;;;8407336;28;27224;-66
2022/05/19 10:25:24;;;;;;;;;;;;;;;;;;8403563;28;27394;-66
2022/05/19 10:33:43;;;;;;;;;;;;;;;;;;8405025;28;27444;-66
2022/05/19 10:37:43;;;;;;;;;;;;;;;;;;8403333;28;27133;-66
2022/05/19 10:41:43;;;;;;;;;;;;;;;;;;8408782;28;28101;-66
2022/05/19 10:45:44;;;;;;;;;;;;;;;;;;8412918;28;27577;-66
2022/05/19 10:49:44;;;;;;;;;;;;;;;;;;8414605;28;27469;-65
2022/05/19 10:53:44;;;;;;;;;;;;;;;;;;8413391;28;27148;-66
2022/05/19 10:57:44;;;;;;;;;;;;;;;;;;8414037;28;27309;-66
2022/05/19 11:01:45;;;;;;;;;;;;;;;;;;8412449;27;27321;-66
2022/05/19 11:05:45;;;;;;;;;;;;;;;;;;8411057;28;27299;-66
2022/05/19 11:09:45;;;;;;;;;;;;;;;;;;8412626;28;27988;-66
2022/05/19 11:13:45;;;;;;;;;;;;;;;;;;8412517;28;28597;-65
2022/05/19 11:17:46;;;;;;;;;;;;;;;;;;8411805;28;27332;-66
2022/05/19 11:21:46;;;;;;;;;;;;;;;;;;8415943;27;27887;-66
2022/05/19 11:30:05;;;;;;;;;;;;;;;;;;8412677;28;27208;-66
2022/05/19 11:34:05;;;;;;;;;;;;;;;;;;8410594;28;27574;-66
2022/05/19 11:38:06;;;;;;;;;;;;;;;;;;8408911;28;28107;-66
2022/05/19 11:42:06;;;;;;;;;;;;;;;;;;8407603;28;31086;-66
2022/05/19 11:46:07;;;;;;;;;;;;;;;;;;8413862;28;28157;-66
2022/05/19 11:58:44;;;;;;;;;;;;;;;;;;8409977;28;27187;-65
2022/05/19 12:02:48;;;;;;;;;;;;;;;;;;8404667;28;27425;-66
2022/05/19 12:06:48;;;;;;;;;;;;;;;;;;8404735;27;27244;-66
2022/05/19 12:10:49;;;;;;;;;;;;;;;;;;8400423;28;27267;-65
2022/05/19 12:14:49;;;;;;;;;;;;;;;;;;8408648;28;29459;-66
2022/05/19 12:18:50;;;;;;;;;;;;;;;;;;8408089;28;27484;-66
2022/05/19 12:22:50;;;;;;;;;;;;;;;;;;8408873;28;28102;-66
2022/05/19 12:26:51;;;;;;;;;;;;;;;;;;8408485;28;28233;-65
2022/05/19 12:35:10;;;;;;;;;;;;;;;;;;8409366;28;27428;-65
2022/05/19 12:39:10;;;;;;;;;;;;;;;;;;8412657;28;27557;-65
2022/05/19 12:43:10;;;;;;;;;;;;;;;;;;8413546;28;30019;-66
2022/05/19 12:47:10;;;;;;;;;;;;;;;;;;8407613;28;27797;-66
2022/05/19 12:51:16;;;;;;;;;;;;;;;;;;8404080;28;27950;-66
2022/05/19 12:55:17;;;;;;;;;;;;;;;;;;8407297;28;27748;-66
2022/05/19 12:59:17;;;;;;;;;;;;;;;;;;8402469;28;27643;-66
2022/05/19 13:03:18;;;;;;;;;;;;;;;;;;8410749;28;27950;-66
2022/05/19 13:07:18;;;;;;;;;;;;;;;;;;8408216;27;27511;-66
2022/05/19 13:11:18;;;;;;;;;;;;;;;;;;8407193;28;27161;-66
2022/05/19 13:15:18;;;;;;;;;;;;;;;;;;8404904;28;28292;-66
2022/05/19 13:19:18;;;;;;;;;;;;;;;;;;8402047;28;27237;-66
2022/05/19 13:23:18;;;;;;;;;;;;;;;;;;8393920;28;27972;-65
2022/05/19 13:31:37;;;;;;;;;;;;;;;;;;8403969;28;27496;-65
2022/05/19 13:35:37;;;;;;;;;;;;;;;;;;8401343;28;28112;-65
2022/05/19 13:39:37;;;;;;;;;;;;;;;;;;8405078;28;27585;-66
2022/05/19 13:43:38;;;;;;;;;;;;;;;;;;8399736;28;27614;-66
2022/05/19 13:47:39;;;;;;;;;;;;;;;;;;8401736;28;46854;-64
2022/05/19 13:51:40;;;;;;;;;;;;;;;;;;8402674;28;27319;-65
2022/05/19 13:55:40;;;;;;;;;;;;;;;;;;8400070;27;27316;-66
2022/05/19 13:59:40;;;;;;;;;;;;;;;;;;8409758;28;28085;-66
2022/05/19 14:03:41;;;;;;;;;;;;;;;;;;8405794;28;27747;-65
2022/05/19 14:07:41;;;;;;;;;;;;;;;;;;8406273;28;27760;-67
2022/05/19 14:11:41;;;;;;;;;;;;;;;;;;8397990;28;27856;-65
2022/05/19 14:15:41;;;;;;;;;;;;;;;;;;8408122;28;27457;-64
2022/05/19 14:19:42;;;;;;;;;;;;;;;;;;8407508;28;28052;-66
2022/05/19 14:23:46;;;;;;;;;;;;;;;;;;8403518;28;27478;-66
2022/05/19 14:27:47;;;;;;;;;;;;;;;;;;8402932;28;27359;-65
2022/05/19 14:31:48;;;;;;;;;;;;;;;;;;8405134;28;27623;-66
2022/05/19 14:35:48;;;;;;;;;;;;;;;;;;8404511;28;27411;-66
2022/05/19 14:39:48;;;;;;;;;;;;;;;;;;8407847;28;27639;-65
2022/05/19 14:43:49;;;;;;;;;;;;;;;;;;8404864;28;28106;-65
2022/05/19 14:47:49;;;;;;;;;;;;;;;;;;8403277;28;27764;-66
2022/05/19 14:51:49;;;;;;;;;;;;;;;;;;8403386;28;27510;-65
2022/05/19 14:55:49;;;;;;;;;;;;;;;;;;8398699;28;28776;-66
2022/05/19 14:59:51;;;;;;;;;;;;;;;;;;8401665;28;30187;-65
2022/05/19 15:03:52;;;;;;;;;;;;;;;;;;8405406;28;28256;-65
2022/05/19 15:07:53;;;;;;;;;;;;;;;;;;8407084;27;27776;-65
2022/05/19 15:11:53;;;;;;;;;;;;;;;;;;8403494;27;28545;-65
2022/05/19 15:15:53;;;;;;;;;;;;;;;;;;8408246;28;27411;-66
2022/05/19 15:19:53;;;;;;;;;;;;;;;;;;8402679;28;27461;-66
2022/05/19 15:23:53;;;;;;;;;;;;;;;;;;8403438;28;27352;-66
2022/05/19 15:27:53;;;;;;;;;;;;;;;;;;8402683;28;29721;-65
2022/05/19 15:31:54;;;;;;;;;;;;;;;;;;8411914;27;27512;-66
2022/05/19 15:35:54;;;;;;;;;;;;;;;;;;8412146;28;28289;-67
2022/05/19 15:39:54;;;;;;;;;;;;;;;;;;8409051;28;28097;-67
2022/05/19 15:43:54;;;;;;;;;;;;;;;;;;8409911;28;27984;-67
2022/05/19 15:47:55;;;;;;;;;;;;;;;;;;8406671;28;27371;-66
2022/05/19 15:51:55;;;;;;;;;;;;;;;;;;8410215;27;28036;-66
2022/05/19 15:55:57;;;;;;;;;;;;;;;;;;8413639;27;27500;-67
2022/05/19 15:59:57;;;;;;;;;;;;;;;;;;8413954;28;27441;-67
2022/05/19 16:03:57;;;;;;;;;;;;;;;;;;8409078;28;27572;-66
2022/05/19 16:07:57;;;;;;;;;;;;;;;;;;8409950;28;28441;-66
2022/05/19 16:11:57;;;;;;;;;;;;;;;;;;8408500;28;27485;-67
2022/05/19 16:15:57;;;;;;;;;;;;;;;;;;8410957;28;28304;-66
2022/05/19 16:19:57;;;;;;;;;;;;;;;;;;8409322;28;28925;-67
2022/05/19 16:23:59;;;;;;;;;;;;;;;;;;8404656;28;27329;-66
2022/05/19 16:27:59;;;;;;;;;;;;;;;;;;8402054;28;27281;-66
2022/05/19 16:31:59;;;;;;;;;;;;;;;;;;8403172;28;27927;-64
2022/05/19 16:35:59;;;;;;;;;;;;;;;;;;8404237;28;27602;-66
2022/05/19 16:39:59;;;;;;;;;;;;;;;;;;8408124;28;27681;-67
2022/05/19 16:43:59;;;;;;;;;;;;;;;;;;8409221;27;27735;-67
2022/05/19 16:48:00;;;;;;;;;;;;;;;;;;8406436;28;28607;-67
2022/05/19 16:52:00;;;;;;;;;;;;;;;;;;8404398;28;27365;-67
2022/05/19 17:00:18;;;;;;;;;;;;;;;;;;8408060;28;27480;-67
2022/05/19 17:04:19;;;;;;;;;;;;;;;;;;8411388;28;27473;-67
2022/05/19 17:08:19;;;;;;;;;;;;;;;;;;8409716;28;27439;-67
2022/05/19 17:12:19;;;;;;;;;;;;;;;;;;8394488;28;27230;-66
2022/05/19 17:16:19;;;;;;;;;;;;;;;;;;8390707;28;28228;-67
2022/05/19 17:20:19;;;;;;;;;;;;;;;;;;8397446;28;27537;-67
2022/05/19 17:24:20;;;;;;;;;;;;;;;;;;8396392;28;27503;-66
2022/05/19 17:28:20;;;;;;;;;;;;;;;;;;8397221;28;27167;-67
2022/05/19 17:32:21;;;;;;;;;;;;;;;;;;8395257;28;29043;-67
2022/05/19 17:36:21;;;;;;;;;;;;;;;;;;8396495;27;27471;-67
2022/05/19 17:40:21;;;;;;;;;;;;;;;;;;8397100;28;28090;-67
2022/05/19 17:44:21;;;;;;;;;;;;;;;;;;8396051;28;28630;-67
2022/05/19 17:48:21;;;;;;;;;;;;;;;;;;8397521;28;28049;-67
2022/05/19 17:52:21;;;;;;;;;;;;;;;;;;8395825;28;27775;-68
2022/05/19 17:56:22;;;;;;;;;;;;;;;;;;8391849;28;27725;-66
2022/05/19 18:00:22;;;;;;;;;;;;;;;;;;8398418;28;27413;-67
2022/05/19 18:04:23;;;;;;;;;;;;;;;;;;8389198;28;27669;-67
2022/05/19 18:08:23;;;;;;;;;;;;;;;;;;8399077;28;28584;-67
2022/05/19 18:12:23;;;;;;;;;;;;;;;;;;8398870;28;27718;-67
2022/05/19 18:20:42;;;;;;;;;;;;;;;;;;8393316;28;29215;-67
2022/05/19 18:24:42;;;;;;;;;;;;;;;;;;8393018;28;27900;-67
2022/05/19 18:28:44;;;;;;;;;;;;;;;;;;8392753;28;28291;-67
2022/05/19 18:32:44;;;;;;;;;;;;;;;;;;8397364;28;28176;-67
2022/05/19 18:36:44;;;;;;;;;;;;;;;;;;8389509;28;28083;-66
2022/05/19 18:45:03;;;;;;;;;;;;;;;;;;8386816;28;28643;-66
2022/05/19 18:49:03;;;;;;;;;;;;;;;;;;8392898;28;27665;-67
2022/05/19 18:53:03;;;;;;;;;;;;;;;;;;8393188;28;28744;-65
2022/05/19 18:57:03;;;;;;;;;;;;;;;;;;8387707;28;27276;-66
2022/05/19 19:01:05;;;;;;;;;;;;;;;;;;8396539;28;28044;-67
2022/05/19 19:05:05;;;;;;;;;;;;;;;;;;8395327;28;28227;-67
2022/05/19 19:09:05;;;;;;;;;;;;;;;;;;8399986;28;27468;-66
2022/05/19 19:13:05;;;;;;;;;;;;;;;;;;8400317;28;28261;-67
2022/05/19 19:17:06;;;;;;;;;;;;;;;;;;8398560;28;27660;-67
2022/05/19 19:21:06;;;;;;;;;;;;;;;;;;8396941;28;28297;-66
2022/05/19 19:25:06;;;;;;;;;;;;;;;;;;8396388;28;27937;-67
2022/05/19 19:29:08;;;;;;;;;;;;;;;;;;8401377;28;28027;-67
2022/05/19 19:33:08;;;;;;;;;;;;;;;;;;8396123;27;27375;-67
2022/05/19 19:37:08;;;;;;;;;;;;;;;;;;8397994;28;28955;-67
2022/05/19 19:41:08;;;;;;;;;;;;;;;;;;8400058;28;28900;-65
2022/05/19 19:45:08;;;;;;;;;;;;;;;;;;8394715;28;28131;-66
2022/05/19 19:49:08;;;;;;;;;;;;;;;;;;8399894;28;27232;-67
2022/05/19 19:53:09;;;;;;;;;;;;;;;;;;8397690;28;27722;-67
2022/05/19 19:57:09;;;;;;;;;;;;;;;;;;8395998;28;28540;-67
2022/05/19 20:01:10;;;;;;;;;;;;;;;;;;8400188;28;27584;-67
2022/05/19 20:05:10;;;;;;;;;;;;;;;;;;8391905;28;27751;-67
2022/05/19 20:09:10;;;;;;;;;;;;;;;;;;8399308;28;27831;-66
2022/05/19 20:13:10;;;;;;;;;;;;;;;;;;8397057;27;28257;-66
2022/05/19 20:17:11;;;;;;;;;;;;;;;;;;8398564;27;27469;-66
2022/05/19 20:21:11;;;;;;;;;;;;;;;;;;8397808;28;27487;-65
2022/05/19 20:25:12;;;;;;;;;;;;;;;;;;8395168;28;28171;-67
2022/05/19 20:29:12;;;;;;;;;;;;;;;;;;8400447;28;27668;-67
2022/05/19 20:33:13;;;;;;;;;;;;;;;;;;8399376;28;27401;-67
2022/05/19 20:37:14;;;;;;;;;;;;;;;;;;8393202;28;27793;-67
2022/05/19 20:41:14;;;;;;;;;;;;;;;;;;8400086;28;28393;-66
2022/05/19 20:45:14;;;;;;;;;;;;;;;;;;8401636;28;28204;-67
2022/05/19 20:49:14;;;;;;;;;;;;;;;;;;8406575;28;27523;-67
2022/05/19 20:53:14;;;;;;;;;;;;;;;;;;8406950;28;27283;-66
2022/05/19 20:57:17;;;;;;;;;;;;;;;;;;8410691;28;29411;-67
2022/05/19 21:01:17;;;;;;;;;;;;;;;;;;8406558;27;28511;-66
2022/05/19 21:05:17;;;;;;;;;;;;;;;;;;8404633;28;27655;-67
2022/05/19 21:09:17;;;;;;;;;;;;;;;;;;8399831;28;27205;-66
2022/05/19 21:13:17;;;;;;;;;;;;;;;;;;8405822;28;28182;-67
2022/05/19 21:17:17;;;;;;;;;;;;;;;;;;8403193;28;27654;-66
2022/05/19 21:21:17;;;;;;;;;;;;;;;;;;8407098;28;27796;-67
2022/05/19 21:26:18;;;;;;;;;;;;;;;;;;8409984;28;27280;-67
2022/05/19 21:29:47;;;;;;;;;;;;;;;;;;8395174;27;27296;-66
2022/05/19 21:33:47;;;;;;;;;;;;;;;;;;8406367;28;27686;-66
2022/05/19 21:37:47;;;;;;;;;;;;;;;;;;8408178;28;28159;-67
2022/05/19 21:41:47;;;;;;;;;;;;;;;;;;8407370;28;27339;-67
2022/05/19 21:45:48;;;;;;;;;;;;;;;;;;8407880;28;27541;-66
2022/05/19 21:49:48;;;;;;;;;;;;;;;;;;8405370;27;27578;-67
2022/05/19 21:58:08;;;;;;;;;;;;;;;;;;8405799;28;27639;-66
2022/05/19 22:02:09;;;;;;;;;;;;;;;;;;8409234;27;28272;-66
2022/05/19 22:10:28;;;;;;;;;;;;;;;;;;8404225;28;27260;-66
2022/05/19 22:14:28;;;;;;;;;;;;;;;;;;8406912;27;27796;-67
2022/05/19 22:18:28;;;;;;;;;;;;;;;;;;8405144;28;28089;-67
2022/05/19 22:22:28;;;;;;;;;;;;;;;;;;8407030;28;28010;-66
2022/05/19 22:26:28;;;;;;;;;;;;;;;;;;8408499;28;27326;-66
2022/05/19 22:30:29;;;;;;;;;;;;;;;;;;8410649;28;27279;-66
2022/05/19 22:34:29;;;;;;;;;;;;;;;;;;8402092;28;27729;-66
2022/05/19 22:38:29;;;;;;;;;;;;;;;;;;8406892;28;27478;-67
2022/05/19 22:42:30;;;;;;;;;;;;;;;;;;8409082;28;27598;-67
2022/05/19 22:46:30;;;;;;;;;;;;;;;;;;8412724;27;27260;-67
2022/05/19 22:50:30;;;;;;;;;;;;;;;;;;8417607;28;28160;-66
2022/05/19 22:54:30;;;;;;;;;;;;;;;;;;8415111;28;27421;-67
2022/05/19 22:58:30;;;;;;;;;;;;;;;;;;8414843;28;28262;-67
2022/05/19 23:02:30;;;;;;;;;;;;;;;;;;8409742;28;27388;-67
2022/05/19 23:06:30;;;;;;;;;;;;;;;;;;8415562;28;27621;-67
2022/05/19 23:10:31;;;;;;;;;;;;;;;;;;8408928;28;27844;-67
2022/05/19 23:14:31;;;;;;;;;;;;;;;;;;8409446;27;28067;-65
2022/05/19 23:18:31;;;;;;;;;;;;;;;;;;8404427;28;27381;-66
2022/05/19 23:22:31;;;;;;;;;;;;;;;;;;8399626;28;27446;-67
2022/05/19 23:26:31;;;;;;;;;;;;;;;;;;8406583;28;28205;-66
2022/05/19 23:30:31;;;;;;;;;;;;;;;;;;8403657;28;27899;-67
2022/05/19 23:34:32;;;;;;;;;;;;;;;;;;8407547;28;27422;-67
2022/05/19 23:38:32;;;;;;;;;;;;;;;;;;8413258;28;27472;-67
2022/05/19 23:42:32;;;;;;;;;;;;;;;;;;8409189;28;28898;-67
2022/05/19 23:46:32;;;;;;;;;;;;;;;;;;8410671;28;28502;-67
2022/05/19 23:50:32;;;;;;;;;;;;;;;;;;8414961;27;28480;-66
2022/05/19 23:54:32;;;;;;;;;;;;;;;;;;8411113;28;28766;-67
2022/05/19 23:58:35;;;;;;;;;;;;;;;;;;8409240;28;27304;-66
